createdAt,value
2023-02-23T00:02:06.783Z,5.85
2023-02-23T00:04:35.286Z,4.93
2023-02-23T00:07:03.037Z,5.25
2023-02-23T00:09:35.984Z,5.13
2023-02-23T00:12:08.406Z,5.25
2023-02-23T00:14:38.616Z,5.43
2023-02-23T00:17:14.537Z,5.65
2023-02-23T00:19:43.921Z,5.75
2023-02-23T00:22:12.030Z,5.18
2023-02-23T00:24:40.702Z,5.43
2023-02-23T00:27:07.957Z,4.88
2023-02-23T00:29:39.645Z,5.38
2023-02-23T00:32:07.468Z,5.65
2023-02-23T00:34:36.897Z,4.80
2023-02-23T00:37:04.586Z,5.20
2023-02-23T00:39:31.910Z,5.93
2023-02-23T00:42:03.226Z,5.55
2023-02-23T00:44:31.994Z,6.22
2023-02-23T00:46:59.130Z,5.47
2023-02-23T00:49:26.939Z,5.13
2023-02-23T00:51:54.340Z,5.90
2023-02-23T00:54:22.288Z,6.68
2023-02-23T00:56:50.146Z,5.72
2023-02-23T00:59:17.711Z,6.07
2023-02-23T01:01:45.192Z,5.65
2023-02-23T01:04:13.426Z,6.25
2023-02-23T01:06:42.234Z,6.18
2023-02-23T01:09:16.169Z,4.80
2023-02-23T01:11:46.995Z,5.55
2023-02-23T01:14:15.215Z,5.47
2023-02-23T01:16:42.435Z,5.60
2023-02-23T01:19:11.048Z,6.20
2023-02-23T01:21:42.247Z,5.50
2023-02-23T01:24:10.048Z,5.10
2023-02-23T01:26:39.983Z,6.07
2023-02-23T01:29:15.188Z,6.60
2023-02-23T01:31:45.196Z,5.32
2023-02-23T01:34:14.473Z,5.50
2023-02-23T01:36:43.950Z,5.35
2023-02-23T01:39:17.421Z,6.47
2023-02-23T01:41:45.464Z,4.78
2023-02-23T01:44:12.820Z,5.93
2023-02-23T01:46:47.571Z,6.07
2023-02-23T01:49:28.485Z,5.22
2023-02-23T01:51:59.225Z,4.82
2023-02-23T01:54:32.038Z,4.72
2023-02-23T01:59:41.758Z,5.10
2023-02-23T02:02:09.527Z,4.97
2023-02-23T02:04:46.576Z,5.22
2023-02-23T02:07:16.663Z,5.32
2023-02-23T02:10:07.229Z,4.93
2023-02-23T02:12:34.556Z,5.47
2023-02-23T02:15:04.999Z,4.78
2023-02-23T02:17:51.462Z,4.97
2023-02-23T02:20:32.842Z,5.10
2023-02-23T02:23:10.720Z,4.47
2023-02-23T02:25:38.593Z,4.35
2023-02-23T02:28:24.006Z,5.68
2023-02-23T02:31:03.490Z,4.45
2023-02-23T02:33:58.417Z,3.83
2023-02-23T02:37:14.676Z,5.72
2023-02-23T02:40:15.152Z,4.25
2023-02-23T02:43:12.581Z,4.60
2023-02-23T02:46:13.318Z,4.32
2023-02-23T02:48:45.338Z,4.88
2023-02-23T02:51:28.705Z,4.83
2023-02-23T02:54:12.259Z,4.60
2023-02-23T02:56:43.195Z,5.00
2023-02-23T02:59:32.814Z,4.68
2023-02-23T03:02:18.617Z,5.70
2023-02-23T03:05:04.807Z,5.20
2023-02-23T03:07:54.080Z,7.45
2023-02-23T03:11:03.290Z,6.38
2023-02-23T03:14:30.349Z,5.75
2023-02-23T03:17:41.483Z,5.00
2023-02-23T03:20:36.198Z,4.75
2023-02-23T03:23:42.331Z,5.88
2023-02-23T03:26:44.499Z,5.53
2023-02-23T03:29:57.799Z,5.32
2023-02-23T03:33:02.423Z,5.80
2023-02-23T03:36:07.471Z,5.75
2023-02-23T03:39:19.955Z,5.78
2023-02-23T03:42:08.698Z,5.82
2023-02-23T03:45:03.874Z,5.30
2023-02-23T03:47:55.416Z,6.35
2023-02-23T03:50:59.260Z,6.22
2023-02-23T03:54:02.800Z,5.15
2023-02-23T03:56:52.626Z,6.35
2023-02-23T03:59:44.818Z,5.95
2023-02-23T04:02:33.457Z,4.57
2023-02-23T04:05:24.134Z,6.47
2023-02-23T04:08:12.138Z,6.40
2023-02-23T04:11:07.207Z,6.60
2023-02-23T04:13:37.773Z,6.50
2023-02-23T04:16:06.570Z,5.68
2023-02-23T04:18:36.928Z,7.50
2023-02-23T04:21:05.355Z,7.32
2023-02-23T04:23:33.209Z,7.30
2023-02-23T04:26:00.254Z,6.10
2023-02-23T04:28:29.314Z,7.07
2023-02-23T04:30:56.539Z,6.57
2023-02-23T04:33:25.686Z,6.72
2023-02-23T04:35:54.207Z,7.03
2023-02-23T04:38:22.090Z,6.40
2023-02-23T04:40:49.401Z,5.95
2023-02-23T04:43:16.728Z,6.00
2023-02-23T04:45:45.607Z,6.40
2023-02-23T04:48:12.770Z,6.28
2023-02-23T04:50:40.222Z,6.65
2023-02-23T04:53:10.563Z,6.43
2023-02-23T04:55:38.118Z,6.28
2023-02-23T04:58:05.399Z,6.18
2023-02-23T05:00:34.251Z,7.10
2023-02-23T05:03:01.515Z,7.00
2023-02-23T05:05:28.827Z,6.15
2023-02-23T05:07:56.485Z,6.03
2023-02-23T05:10:24.227Z,6.28
2023-02-23T05:12:51.725Z,6.10
2023-02-23T05:15:18.894Z,5.03
2023-02-23T05:17:46.279Z,6.15
2023-02-23T05:20:14.493Z,4.50
2023-02-23T05:22:42.873Z,6.45
2023-02-23T05:25:10.441Z,6.85
2023-02-23T05:27:37.789Z,6.28
2023-02-23T05:30:07.942Z,6.70
2023-02-23T05:32:35.341Z,6.38
2023-02-23T05:35:03.183Z,6.28
2023-02-23T05:37:33.513Z,6.97
2023-02-23T05:40:00.695Z,5.97
2023-02-23T05:42:27.763Z,6.07
2023-02-23T05:44:55.021Z,6.72
2023-02-23T05:47:22.079Z,7.60
2023-02-23T05:49:49.203Z,7.35
2023-02-23T05:52:16.267Z,6.38
2023-02-23T05:54:43.487Z,5.78
2023-02-23T05:57:10.536Z,7.10
2023-02-23T05:59:37.645Z,6.50
2023-02-23T06:02:06.234Z,6.40
2023-02-23T06:04:33.834Z,6.35
2023-02-23T06:07:00.972Z,6.18
2023-02-23T06:09:28.119Z,6.78
2023-02-23T06:11:55.271Z,7.25
2023-02-23T06:14:22.401Z,6.68
2023-02-23T06:16:49.527Z,6.85
2023-02-23T06:19:16.796Z,7.50
2023-02-23T06:21:43.813Z,8.20
2023-02-23T06:24:12.362Z,7.55
2023-02-23T06:26:39.621Z,7.15
2023-02-23T06:29:06.682Z,7.15
2023-02-23T06:31:33.907Z,6.78
2023-02-23T06:34:01.070Z,7.30
2023-02-23T06:36:28.514Z,6.78
2023-02-23T06:38:59.743Z,7.47
2023-02-23T06:41:27.295Z,8.48
2023-02-23T06:43:54.416Z,6.97
2023-02-23T06:46:22.174Z,7.00
2023-02-23T06:48:49.327Z,6.68
2023-02-23T06:51:16.472Z,8.25
2023-02-23T06:53:43.514Z,7.70
2023-02-23T06:56:12.447Z,6.57
2023-02-23T06:58:40.936Z,6.05
2023-02-23T07:01:08.104Z,5.95
2023-02-23T07:03:35.280Z,6.57
2023-02-23T07:06:05.801Z,6.40
2023-02-23T07:08:34.741Z,6.85
2023-02-23T07:11:14.081Z,6.95
2023-02-23T07:13:42.625Z,6.95
2023-02-23T07:16:10.011Z,5.88
2023-02-23T07:18:37.165Z,6.90
2023-02-23T07:21:04.498Z,6.75
2023-02-23T07:23:31.958Z,6.95
2023-02-23T07:26:01.078Z,6.90
2023-02-23T07:28:28.946Z,7.63
2023-02-23T07:30:59.374Z,7.45
2023-02-23T07:33:26.696Z,5.85
2023-02-23T07:35:53.751Z,6.75
2023-02-23T07:38:20.876Z,6.32
2023-02-23T07:40:50.620Z,6.32
2023-02-23T07:43:17.827Z,6.63
2023-02-23T07:45:46.571Z,6.45
2023-02-23T07:48:14.129Z,6.40
2023-02-23T07:50:42.538Z,5.25
2023-02-23T07:53:12.636Z,5.60
2023-02-23T07:55:41.261Z,5.80
2023-02-23T07:58:09.045Z,6.10
2023-02-23T08:00:40.156Z,6.47
2023-02-23T08:03:07.905Z,5.53
2023-02-23T08:05:36.358Z,5.78
2023-02-23T08:08:03.560Z,5.55
2023-02-23T08:10:31.068Z,5.38
2023-02-23T08:12:58.739Z,5.63
2023-02-23T08:15:25.877Z,5.82
2023-02-23T08:17:53.005Z,5.70
2023-02-23T08:20:20.253Z,6.38
2023-02-23T08:22:49.930Z,6.63
2023-02-23T08:25:18.122Z,6.93
2023-02-23T08:27:45.709Z,5.35
2023-02-23T08:30:14.399Z,6.15
2023-02-23T08:32:42.388Z,6.38
2023-02-23T08:35:10.900Z,5.57
2023-02-23T08:37:37.973Z,7.38
2023-02-23T08:40:05.936Z,7.22
2023-02-23T08:42:33.091Z,4.57
2023-02-23T08:45:01.549Z,5.57
2023-02-23T08:47:30.006Z,5.20
2023-02-23T08:49:57.123Z,6.35
2023-02-23T08:52:25.469Z,5.38
2023-02-23T08:54:52.695Z,5.00
2023-02-23T08:57:20.050Z,5.20
2023-02-23T08:59:47.672Z,6.03
2023-02-23T09:02:15.495Z,5.32
2023-02-23T09:04:43.066Z,4.45
2023-02-23T09:07:14.886Z,4.60
2023-02-23T09:09:41.979Z,4.53
2023-02-23T09:12:09.171Z,5.53
2023-02-23T09:14:36.897Z,5.82
2023-02-23T09:17:04.559Z,5.30
2023-02-23T09:19:31.815Z,5.28
2023-02-23T09:21:58.935Z,5.13
2023-02-23T09:24:26.189Z,5.80
2023-02-23T09:26:53.881Z,5.53
2023-02-23T09:29:21.257Z,5.63
2023-02-23T09:31:48.444Z,5.28
2023-02-23T09:34:15.699Z,5.78
2023-02-23T09:36:42.708Z,4.82
2023-02-23T09:39:09.838Z,4.60
2023-02-23T09:42:08.498Z,4.20
2023-02-23T09:44:50.919Z,4.63
2023-02-23T09:47:21.274Z,4.40
2023-02-23T09:49:50.187Z,4.43
2023-02-23T09:52:22.449Z,5.00
2023-02-23T09:54:49.919Z,4.72
2023-02-23T09:57:34.006Z,4.80
2023-02-23T10:00:01.208Z,4.60
2023-02-23T10:02:39.891Z,4.53
2023-02-23T10:05:12.509Z,5.05
2023-02-23T10:07:42.521Z,6.50
2023-02-23T10:10:28.041Z,4.68
2023-02-23T10:13:22.351Z,4.75
2023-02-23T10:15:56.083Z,4.47
2023-02-23T10:18:50.353Z,5.00
2023-02-23T10:21:40.343Z,4.60
2023-02-23T10:24:11.744Z,4.65
2023-02-23T10:26:49.826Z,5.68
2023-02-23T10:29:29.064Z,4.53
2023-02-23T10:32:33.823Z,4.20
2023-02-23T10:35:01.604Z,4.47
2023-02-23T10:37:28.789Z,5.20
2023-02-23T10:39:55.938Z,5.63
2023-02-23T10:42:29.217Z,5.88
2023-02-23T10:44:58.930Z,11.38
2023-02-23T10:47:33.421Z,8.00
2023-02-23T10:50:01.067Z,5.30
2023-02-23T10:52:41.873Z,6.47
2023-02-23T10:55:27.417Z,7.20
2023-02-23T10:58:19.189Z,5.65
2023-02-23T11:01:06.819Z,5.22
2023-02-23T11:03:48.344Z,4.78
2023-02-23T11:06:36.135Z,5.05
2023-02-23T11:09:43.742Z,5.07
2023-02-23T11:12:25.519Z,5.10
2023-02-23T11:14:55.062Z,4.78
2023-02-23T11:17:37.030Z,4.85
2023-02-23T11:20:18.552Z,3.40
2023-02-23T11:22:46.244Z,3.72
2023-02-23T11:25:29.659Z,5.53
2023-02-23T11:27:58.289Z,3.63
2023-02-23T11:30:34.473Z,4.13
2023-02-23T11:33:10.750Z,3.92
2023-02-23T11:35:39.465Z,3.97
2023-02-23T11:38:24.709Z,4.18
2023-02-23T11:41:07.350Z,3.45
2023-02-23T11:43:36.249Z,3.65
2023-02-23T11:46:04.237Z,3.35
2023-02-23T11:48:55.278Z,4.22
2023-02-23T11:51:33.726Z,4.43
2023-02-23T11:54:04.055Z,6.07
2023-02-23T11:56:34.655Z,4.10
2023-02-23T11:59:14.029Z,6.53
2023-02-23T12:01:52.937Z,7.85
2023-02-23T12:04:41.409Z,4.32
2023-02-23T12:07:41.924Z,5.50
2023-02-23T12:10:21.426Z,4.32
2023-02-23T12:12:57.320Z,3.67
2023-02-23T12:15:34.894Z,4.45
2023-02-23T12:18:11.885Z,5.07
2023-02-23T12:20:44.119Z,4.10
2023-02-23T12:23:15.890Z,5.15
2023-02-23T12:25:51.779Z,4.25
2023-02-23T12:28:36.568Z,4.18
2023-02-23T12:31:42.610Z,3.80
2023-02-23T12:34:15.837Z,4.28
2023-02-23T12:36:50.550Z,4.80
2023-02-23T12:39:33.482Z,4.45
2023-02-23T12:44:43.660Z,5.43
2023-02-23T12:47:44.763Z,4.43
2023-02-23T12:50:33.870Z,4.32
2023-02-23T12:53:12.613Z,4.47
2023-02-23T12:55:54.750Z,4.28
2023-02-23T12:58:21.840Z,4.83
2023-02-23T13:00:55.756Z,4.72
2023-02-23T13:03:37.270Z,4.68
2023-02-23T13:06:47.757Z,4.05
2023-02-23T13:09:27.036Z,4.32
2023-02-23T13:12:08.228Z,6.93
2023-02-23T13:14:48.277Z,8.48
2023-02-23T13:17:36.979Z,29.27
2023-02-23T13:20:20.730Z,15.65
2023-02-23T13:23:01.451Z,8.60
2023-02-23T13:25:52.174Z,30.60
2023-02-23T13:28:28.315Z,6.32
2023-02-23T13:30:57.460Z,5.28
2023-02-23T13:33:43.280Z,4.40
2023-02-23T13:36:13.183Z,5.57
2023-02-23T13:39:01.304Z,11.75
2023-02-23T13:41:48.285Z,5.63
2023-02-23T13:44:49.624Z,12.80
2023-02-23T13:47:46.038Z,7.45
2023-02-23T13:50:47.470Z,7.05
2023-02-23T13:53:34.906Z,5.13
2023-02-23T13:56:10.601Z,4.78
2023-02-23T13:58:45.676Z,4.18
2023-02-23T14:01:36.991Z,5.10
2023-02-23T14:04:14.520Z,3.65
2023-02-23T14:06:58.454Z,4.75
2023-02-23T14:09:31.928Z,4.50
2023-02-23T14:12:11.416Z,5.07
2023-02-23T14:14:42.381Z,6.72
2023-02-23T14:17:35.443Z,5.03
2023-02-23T14:23:22.160Z,4.43
2023-02-23T14:26:15.365Z,21.17
2023-02-23T14:31:16.090Z,24.02
2023-02-23T14:33:43.343Z,30.67
2023-02-23T14:36:22.705Z,9.98
2023-02-23T14:39:26.010Z,7.63
2023-02-23T14:44:30.896Z,6.13
2023-02-23T14:47:19.019Z,5.38
2023-02-23T14:49:50.430Z,13.88
2023-02-23T14:52:29.941Z,17.98
2023-02-23T14:55:28.980Z,14.25
2023-02-23T14:57:58.236Z,9.40
2023-02-23T15:00:29.028Z,5.85
2023-02-23T15:03:16.806Z,8.02
2023-02-23T15:05:59.806Z,5.15
2023-02-23T15:08:31.824Z,9.05
2023-02-23T15:11:11.551Z,12.45
2023-02-23T15:13:42.714Z,6.50
2023-02-23T15:16:29.511Z,5.57
2023-02-23T15:19:35.085Z,4.90
2023-02-23T15:22:06.134Z,4.55
2023-02-23T15:24:47.705Z,4.40
2023-02-23T15:27:24.783Z,6.40
2023-02-23T15:29:52.418Z,16.60
2023-02-23T15:32:24.989Z,8.60
2023-02-23T15:35:03.728Z,19.83
2023-02-23T15:37:40.255Z,27.25
2023-02-23T15:40:16.576Z,70.45
2023-02-23T15:42:51.568Z,125.40
2023-02-23T15:45:36.549Z,101.78
2023-02-23T15:48:21.442Z,48.90
2023-02-23T15:50:53.932Z,20.42
2023-02-23T15:53:24.589Z,23.35
2023-02-23T15:55:56.082Z,21.75
2023-02-23T15:58:31.367Z,6.75
2023-02-23T16:01:08.985Z,6.10
2023-02-23T16:03:39.387Z,6.25
2023-02-23T16:06:21.396Z,5.97
2023-02-23T16:09:02.498Z,6.45
2023-02-23T16:11:37.907Z,5.93
2023-02-23T16:14:06.927Z,5.40
2023-02-23T16:16:35.943Z,6.28
2023-02-23T16:19:05.157Z,5.70
2023-02-23T16:21:33.268Z,5.57
2023-02-23T16:24:06.639Z,6.03
2023-02-23T16:26:44.262Z,5.97
2023-02-23T16:29:19.957Z,7.80
2023-02-23T16:31:52.193Z,8.30
2023-02-23T16:34:34.703Z,9.57
2023-02-23T16:37:26.303Z,12.65
2023-02-23T16:39:56.086Z,16.92
2023-02-23T16:42:30.897Z,13.32
2023-02-23T16:45:00.765Z,14.48
2023-02-23T16:47:41.171Z,13.88
2023-02-23T16:50:20.304Z,14.57
2023-02-23T16:52:53.563Z,14.95
2023-02-23T16:55:26.173Z,14.02
2023-02-23T16:58:02.729Z,17.48
2023-02-23T17:00:33.316Z,18.50
2023-02-23T17:03:01.062Z,19.35
2023-02-23T17:05:29.340Z,17.05
2023-02-23T17:07:59.331Z,19.60
2023-02-23T17:10:31.856Z,17.02
2023-02-23T17:13:03.612Z,17.38
2023-02-23T17:15:35.172Z,21.05
2023-02-23T17:18:03.996Z,20.83
2023-02-23T17:20:33.048Z,22.15
2023-02-23T17:23:02.151Z,26.33
2023-02-23T17:25:30.269Z,36.00
2023-02-23T17:28:00.263Z,40.03
2023-02-23T17:30:30.305Z,43.67
2023-02-23T17:32:59.267Z,42.03
2023-02-23T17:35:27.697Z,38.95
2023-02-23T17:37:55.819Z,38.97
2023-02-23T17:40:35.008Z,36.05
2023-02-23T17:43:06.589Z,32.83
2023-02-23T17:45:35.496Z,34.47
2023-02-23T17:48:03.513Z,34.92
2023-02-23T17:50:31.236Z,35.55
2023-02-23T17:52:59.343Z,34.88
2023-02-23T17:55:27.232Z,35.55
2023-02-23T17:57:55.287Z,44.38
2023-02-23T18:00:24.335Z,42.45
2023-02-23T18:02:52.585Z,44.20
2023-02-23T18:05:22.028Z,41.30
2023-02-23T18:07:51.149Z,40.72
2023-02-23T18:10:22.022Z,38.28
2023-02-23T18:12:52.554Z,38.97
2023-02-23T18:15:21.976Z,39.40
2023-02-23T18:17:50.948Z,38.15
2023-02-23T18:20:19.157Z,39.58
2023-02-23T18:22:47.312Z,37.42
2023-02-23T18:25:44.709Z,38.55
2023-02-23T18:28:14.040Z,37.78
2023-02-23T18:30:42.660Z,36.13
2023-02-23T18:33:11.919Z,36.22
2023-02-23T18:35:46.808Z,37.47
2023-02-23T18:38:16.972Z,40.92
2023-02-23T18:40:45.816Z,41.25
2023-02-23T18:43:15.902Z,40.42
2023-02-23T18:45:44.373Z,44.53
2023-02-23T18:48:13.996Z,49.65
2023-02-23T18:50:42.274Z,48.45
2023-02-23T18:53:11.413Z,51.63
2023-02-23T18:55:40.434Z,45.40
2023-02-23T18:58:09.008Z,47.42
2023-02-23T19:00:43.243Z,45.17
2023-02-23T19:03:13.528Z,41.75
2023-02-23T19:05:53.479Z,39.60
2023-02-23T19:08:22.492Z,38.60
2023-02-23T19:10:53.100Z,39.05
2023-02-23T19:13:23.195Z,38.90
2023-02-23T19:15:53.997Z,40.13
2023-02-23T19:18:24.528Z,39.63
2023-02-23T19:20:54.197Z,37.42
2023-02-23T19:23:22.781Z,35.63
2023-02-23T19:25:52.145Z,36.75
2023-02-23T19:28:20.868Z,32.92
2023-02-23T19:30:50.721Z,29.13
2023-02-23T19:33:20.801Z,26.85
2023-02-23T19:35:49.504Z,24.35
2023-02-23T19:38:17.869Z,21.88
2023-02-23T19:40:47.410Z,21.27
2023-02-23T19:43:15.358Z,17.48
2023-02-23T19:45:46.811Z,17.88
2023-02-23T19:48:17.387Z,15.98
2023-02-23T19:50:50.059Z,14.25
2023-02-23T19:53:18.250Z,15.52
2023-02-23T19:55:48.043Z,15.63
2023-02-23T19:58:17.334Z,16.25
2023-02-23T20:00:47.664Z,14.55
2023-02-23T20:03:20.479Z,16.38
2023-02-23T20:08:19.551Z,15.90
2023-02-23T20:10:47.610Z,15.68
2023-02-23T20:13:16.730Z,15.60
2023-02-23T20:15:45.892Z,15.23
2023-02-23T20:18:16.624Z,15.13
2023-02-23T20:20:47.345Z,16.77
2023-02-23T20:23:17.545Z,16.35
2023-02-23T20:25:46.268Z,16.33
2023-02-23T20:28:14.210Z,16.83
2023-02-23T20:30:47.803Z,19.00
2023-02-23T20:33:18.957Z,16.80
2023-02-23T20:35:47.207Z,17.25
2023-02-23T20:38:16.848Z,15.90
2023-02-23T20:40:45.562Z,16.15
2023-02-23T20:43:13.446Z,15.27
2023-02-23T20:45:42.212Z,16.92
2023-02-23T20:48:10.416Z,15.98
2023-02-23T20:50:39.086Z,17.60
2023-02-23T20:53:08.865Z,15.88
2023-02-23T20:55:37.500Z,17.33
2023-02-23T20:58:07.095Z,16.67
2023-02-23T21:00:35.126Z,15.63
2023-02-23T21:03:05.138Z,15.20
2023-02-23T21:05:39.237Z,15.05
2023-02-23T21:08:09.171Z,13.55
2023-02-23T21:10:39.638Z,13.35
2023-02-23T21:13:11.416Z,14.50
2023-02-23T21:15:41.467Z,14.35
2023-02-23T21:18:10.875Z,12.00
2023-02-23T21:20:41.755Z,12.35
2023-02-23T21:23:10.511Z,13.25
2023-02-23T21:25:39.218Z,13.13
2023-02-23T21:28:07.365Z,11.77
2023-02-23T21:30:34.828Z,11.57
2023-02-23T21:33:04.425Z,11.60
2023-02-23T21:35:31.836Z,11.40
2023-02-23T21:37:59.481Z,14.25
2023-02-23T21:40:27.204Z,12.27
2023-02-23T21:42:54.847Z,13.65
2023-02-23T21:45:22.911Z,12.02
2023-02-23T21:47:50.462Z,13.23
2023-02-23T21:50:19.617Z,12.55
2023-02-23T21:52:48.861Z,13.25
2023-02-23T21:55:24.634Z,11.95
2023-02-23T21:57:52.433Z,13.15
2023-02-23T22:00:21.171Z,12.95
2023-02-23T22:02:49.355Z,13.93
2023-02-23T22:05:18.305Z,12.13
2023-02-23T22:07:54.635Z,14.18
2023-02-23T22:10:24.651Z,13.02
2023-02-23T22:12:56.083Z,12.25
2023-02-23T22:15:27.823Z,11.57
2023-02-23T22:17:56.036Z,12.27
2023-02-23T22:20:23.307Z,11.27
2023-02-23T22:22:53.088Z,11.57
2023-02-23T22:25:20.854Z,11.20
2023-02-23T22:27:48.288Z,11.82
2023-02-23T22:30:16.135Z,11.25
2023-02-23T22:32:44.004Z,10.90
2023-02-23T22:35:11.354Z,11.55
2023-02-23T22:37:39.205Z,10.95
2023-02-23T22:40:16.892Z,11.93
2023-02-23T22:42:48.324Z,11.30
2023-02-23T22:45:16.401Z,11.70
2023-02-23T22:47:43.616Z,11.52
2023-02-23T22:50:15.619Z,10.38
2023-02-23T22:52:43.179Z,9.57
2023-02-23T22:55:11.280Z,10.02
2023-02-23T22:57:39.999Z,10.68
2023-02-23T23:00:12.690Z,9.30
2023-02-23T23:05:07.594Z,7.90
2023-02-23T23:07:34.744Z,8.50
2023-02-23T23:10:05.837Z,8.77
2023-02-23T23:12:34.663Z,7.53
2023-02-23T23:15:03.483Z,9.00
2023-02-23T23:17:31.495Z,10.70
2023-02-23T23:20:00.425Z,13.25
2023-02-23T23:22:28.162Z,16.05
2023-02-23T23:24:57.143Z,15.15
2023-02-23T23:27:24.892Z,13.70
2023-02-23T23:29:51.932Z,10.73
2023-02-23T23:32:19.438Z,12.27
2023-02-23T23:34:48.234Z,11.32
2023-02-23T23:37:17.273Z,10.90
2023-02-23T23:39:45.103Z,11.77
2023-02-23T23:42:12.322Z,9.48
2023-02-23T23:44:39.505Z,8.90
2023-02-23T23:47:06.586Z,8.25
2023-02-23T23:49:39.244Z,8.95
2023-02-23T23:52:06.707Z,8.05
2023-02-23T23:54:39.341Z,8.13
2023-02-23T23:59:35.500Z,6.35
